Time,TemperatureF,DewpointF,PressureIn,WindDirection,WindDirectionDegrees,WindSpeedMPH,WindSpeedGustMPH,Humidity,HourlyPrecipIn,Conditions,Clouds,dailyrainin,SoftwareType,DateUTC
2013-06-05 00:06:00,52.9,48.8,30.10,North,0,0.0,0.0,86,0.00,,,0.00,WeatherCatV1.15B25,2013-06-05 04:06:00,
2013-06-05 00:11:00,52.4,48.0,30.10,North,0,0.0,0.0,85,0.00,,,0.00,WeatherCatV1.15B25,2013-06-05 04:11:00,
2013-06-05 00:16:00,52.1,48.0,30.10,North,0,0.0,0.0,86,0.00,,,0.00,WeatherCatV1.15B25,2013-06-05 04:16:00,
2013-06-05 00:21:00,51.8,48.1,30.10,North,0,0.0,0.0,87,0.00,,,0.00,WeatherCatV1.15B25,2013-06-05 04:21:00,
2013-06-05 00:23:00,51.7,48.3,30.11,North,0,0.0,0.0,88,0.00,,,0.00,WeatherCatV1.15B25,2013-06-05 04:23:00,
2013-06-05 00:26:00,51.5,48.1,30.12,North,0,0.0,0.0,88,0.00,,,0.00,WeatherCatV1.15B25,2013-06-05 04:26:00,
2013-06-05 00:31:00,51.4,48.0,30.11,North,0,0.0,0.0,88,0.00,,,0.00,WeatherCatV1.15B25,2013-06-05 04:31:00,
2013-06-05 00:33:00,51.2,47.8,30.11,North,0,0.0,0.0,88,0.00,,,0.00,WeatherCatV1.15B25,2013-06-05 04:33:00,
2013-06-05 00:36:00,51.1,47.7,30.11,North,0,0.0,0.0,88,0.00,,,0.00,WeatherCatV1.15B25,2013-06-05 04:36:00,
2013-06-05 00:41:00,50.9,47.8,30.11,North,0,0.0,0.0,89,0.00,,,0.00,WeatherCatV1.15B25,2013-06-05 04:41:00,
2013-06-05 00:46:00,50.6,47.8,30.12,North,0,0.0,0.0,90,0.00,,,0.00,WeatherCatV1.15B25,2013-06-05 04:46:00,
2013-06-05 00:51:00,50.5,47.7,30.12,North,0,0.0,0.0,90,0.00,,,0.00,WeatherCatV1.15B25,2013-06-05 04:51:00,
2013-06-05 00:56:00,50.2,47.7,30.11,North,0,0.0,0.0,91,0.00,,,0.00,WeatherCatV1.15B25,2013-06-05 04:56:00,
2013-06-05 01:01:00,50.0,47.8,30.12,North,0,0.0,0.0,92,0.00,,,0.00,WeatherCatV1.15B25,2013-06-05 05:01:00,
2013-06-05 01:06:00,49.8,47.6,30.11,North,0,0.0,0.0,92,0.00,,,0.00,WeatherCatV1.15B25,2013-06-05 05:06:00,
2013-06-05 01:11:00,49.5,47.6,30.12,North,0,0.0,0.0,93,0.00,,,0.00,WeatherCatV1.15B25,2013-06-05 05:11:00,
2013-06-05 01:16:00,49.3,47.4,30.12,North,0,0.0,0.0,93,0.00,,,0.00,WeatherCatV1.15B25,2013-06-05 05:16:00,
2013-06-05 01:21:00,49.1,47.4,30.11,North,0,0.0,0.0,94,0.00,,,0.00,WeatherCatV1.15B25,2013-06-05 05:21:00,
2013-06-05 01:26:00,48.9,47.5,30.11,North,0,0.0,0.0,95,0.00,,,0.00,WeatherCatV1.15B25,2013-06-05 05:26:00,
2013-06-05 01:31:00,48.7,47.3,30.12,North,0,0.0,0.0,95,0.00,,,0.00,WeatherCatV1.15B25,2013-06-05 05:31:00,
2013-06-05 01:36:00,48.6,47.2,30.11,North,0,0.0,0.0,95,0.00,,,0.00,WeatherCatV1.15B25,2013-06-05 05:36:00,
2013-06-05 01:41:00,48.4,47.0,30.12,North,0,0.0,0.0,95,0.00,,,0.00,WeatherCatV1.15B25,2013-06-05 05:41:00,
2013-06-05 01:46:00,48.3,46.9,30.13,North,0,0.0,0.0,95,0.00,,,0.00,WeatherCatV1.15B25,2013-06-05 05:46:00,
2013-06-05 01:51:00,48.0,46.6,30.12,North,0,0.0,0.0,95,0.00,,,0.00,WeatherCatV1.15B25,2013-06-05 05:51:00,
2013-06-05 01:56:00,48.0,46.9,30.12,North,0,0.0,0.0,96,0.00,,,0.00,WeatherCatV1.15B25,2013-06-05 05:56:00,
2013-06-05 02:01:00,48.0,46.9,30.12,North,0,0.0,0.0,96,0.00,,,0.00,WeatherCatV1.15B25,2013-06-05 06:01:00,
2013-06-05 02:06:00,48.0,46.9,30.12,North,0,0.0,0.0,96,0.00,,,0.00,WeatherCatV1.15B25,2013-06-05 06:06:00,
2013-06-05 02:11:00,48.0,47.2,30.11,North,0,0.0,0.0,97,0.00,,,0.00,WeatherCatV1.15B25,2013-06-05 06:11:00,
2013-06-05 02:16:00,47.8,46.7,30.11,North,0,0.0,0.0,96,0.00,,,0.00,WeatherCatV1.15B25,2013-06-05 06:16:00,
2013-06-05 02:21:00,47.7,46.6,30.12,North,0,0.0,0.0,96,0.00,,,0.00,WeatherCatV1.15B25,2013-06-05 06:21:00,
2013-06-05 02:26:00,47.5,46.4,30.12,North,0,0.0,0.0,96,0.00,,,0.00,WeatherCatV1.15B25,2013-06-05 06:26:00,
2013-06-05 02:31:00,47.4,46.3,30.12,North,0,0.0,0.0,96,0.00,,,0.00,WeatherCatV1.15B25,2013-06-05 06:31:00,
2013-06-05 02:36:00,47.1,46.3,30.13,North,0,0.0,0.0,97,0.00,,,0.00,WeatherCatV1.15B25,2013-06-05 06:36:00,
2013-06-05 02:41:00,47.0,46.2,30.12,North,0,0.0,0.0,97,0.00,,,0.00,WeatherCatV1.15B25,2013-06-05 06:41:00,
2013-06-05 02:46:00,46.8,46.0,30.12,North,0,0.0,0.0,97,0.00,,,0.00,WeatherCatV1.15B25,2013-06-05 06:46:00,
2013-06-05 02:51:00,46.7,45.9,30.11,North,0,0.0,0.0,97,0.00,,,0.00,WeatherCatV1.15B25,2013-06-05 06:51:00,
2013-06-05 02:56:00,46.7,45.9,30.12,North,0,0.0,0.0,97,0.00,,,0.00,WeatherCatV1.15B25,2013-06-05 06:56:00,
2013-06-05 03:01:00,46.7,45.9,30.12,North,0,0.0,0.0,97,0.00,,,0.00,WeatherCatV1.15B25,2013-06-05 07:01:00,
2013-06-05 03:06:00,46.5,46.0,30.12,North,0,0.0,0.0,98,0.00,,,0.00,WeatherCatV1.15B25,2013-06-05 07:06:00,
2013-06-05 03:11:00,46.5,46.2,30.13,North,0,0.0,0.0,99,0.00,,,0.00,WeatherCatV1.15B25,2013-06-05 07:11:00,
2013-06-05 03:16:00,46.5,46.2,30.12,North,0,0.0,0.0,99,0.00,,,0.00,WeatherCatV1.15B25,2013-06-05 07:16:00,
2013-06-05 03:21:00,46.5,46.2,30.12,North,0,0.0,0.0,99,0.00,,,0.00,WeatherCatV1.15B25,2013-06-05 07:21:00,
2013-06-05 03:26:00,46.7,46.4,30.12,North,0,0.0,0.0,99,0.00,,,0.00,WeatherCatV1.15B25,2013-06-05 07:26:00,
2013-06-05 03:31:00,46.7,46.4,30.12,North,0,0.0,0.0,99,0.00,,,0.00,WeatherCatV1.15B25,2013-06-05 07:31:00,
2013-06-05 03:36:00,46.7,46.2,30.12,North,0,0.0,0.0,98,0.00,,,0.00,WeatherCatV1.15B25,2013-06-05 07:36:00,
2013-06-05 03:41:00,46.7,46.4,30.12,North,0,0.0,0.0,99,0.00,,,0.00,WeatherCatV1.15B25,2013-06-05 07:41:00,
2013-06-05 03:46:00,46.7,46.4,30.13,North,0,0.0,0.0,99,0.00,,,0.00,WeatherCatV1.15B25,2013-06-05 07:46:00,
2013-06-05 03:51:00,46.5,46.2,30.13,North,0,0.0,0.0,99,0.00,,,0.00,WeatherCatV1.15B25,2013-06-05 07:51:00,
2013-06-05 03:56:00,46.5,46.2,30.13,North,0,0.0,0.0,99,0.00,,,0.00,WeatherCatV1.15B25,2013-06-05 07:56:00,
2013-06-05 04:01:00,46.5,46.5,30.14,North,0,0.0,0.0,100,0.00,,,0.00,WeatherCatV1.15B25,2013-06-05 08:01:00,
2013-06-05 04:06:00,46.5,46.5,30.14,North,0,0.0,0.0,100,0.00,,,0.00,WeatherCatV1.15B25,2013-06-05 08:06:00,
2013-06-05 04:11:00,46.4,46.4,30.14,North,0,0.0,0.0,100,0.00,,,0.00,WeatherCatV1.15B25,2013-06-05 08:11:00,
2013-06-05 04:16:00,46.2,46.2,30.13,North,0,0.0,0.0,100,0.00,,,0.00,WeatherCatV1.15B25,2013-06-05 08:16:00,
2013-06-05 04:21:00,46.1,46.1,30.15,North,0,0.0,0.0,100,0.00,,,0.00,WeatherCatV1.15B25,2013-06-05 08:21:00,
2013-06-05 04:26:00,45.9,45.9,30.14,North,0,0.0,0.0,100,0.00,,,0.00,WeatherCatV1.15B25,2013-06-05 08:26:00,
2013-06-05 04:31:00,45.8,45.8,30.14,North,0,0.0,0.0,100,0.00,,,0.00,WeatherCatV1.15B25,2013-06-05 08:31:00,
2013-06-05 04:36:00,45.7,45.7,30.14,North,0,0.0,0.0,100,0.00,,,0.00,WeatherCatV1.15B25,2013-06-05 08:36:00,
2013-06-05 04:41:00,45.5,45.5,30.14,North,0,0.0,0.0,100,0.00,,,0.00,WeatherCatV1.15B25,2013-06-05 08:41:00,
2013-06-05 04:46:00,45.5,45.5,30.15,North,0,0.0,0.0,100,0.00,,,0.00,WeatherCatV1.15B25,2013-06-05 08:46:00,
2013-06-05 04:51:00,45.5,45.5,30.14,North,0,0.0,0.0,100,0.00,,,0.00,WeatherCatV1.15B25,2013-06-05 08:51:00,
2013-06-05 04:56:00,45.4,45.4,30.14,North,0,0.0,0.0,100,0.00,,,0.00,WeatherCatV1.15B25,2013-06-05 08:56:00,
2013-06-05 05:01:00,45.2,45.2,30.15,North,0,0.0,0.0,100,0.00,,,0.00,WeatherCatV1.15B25,2013-06-05 09:01:00,
2013-06-05 05:06:00,45.2,45.2,30.15,North,0,0.0,0.0,100,0.00,,,0.00,WeatherCatV1.15B25,2013-06-05 09:06:00,
2013-06-05 05:11:00,45.2,45.2,30.15,North,0,0.0,0.0,100,0.00,,,0.00,WeatherCatV1.15B25,2013-06-05 09:11:00,
2013-06-05 05:16:00,45.1,45.1,30.15,North,0,0.0,0.0,100,0.00,,,0.00,WeatherCatV1.15B25,2013-06-05 09:16:00,
2013-06-05 05:21:00,45.1,45.1,30.15,North,0,0.0,0.0,100,0.00,,,0.00,WeatherCatV1.15B25,2013-06-05 09:21:00,
2013-06-05 05:26:00,45.1,45.1,30.15,North,0,0.0,0.0,100,0.00,,,0.00,WeatherCatV1.15B25,2013-06-05 09:26:00,
2013-06-05 05:31:00,45.1,45.1,30.16,North,0,0.0,0.0,100,0.00,,,0.00,WeatherCatV1.15B25,2013-06-05 09:31:00,
2013-06-05 05:36:00,44.9,44.9,30.15,North,0,0.0,0.0,100,0.00,,,0.00,WeatherCatV1.15B25,2013-06-05 09:36:00,
2013-06-05 05:41:00,44.9,44.9,30.15,North,0,0.0,0.0,100,0.00,,,0.00,WeatherCatV1.15B25,2013-06-05 09:41:00,
2013-06-05 05:46:00,44.9,44.9,30.15,North,0,0.0,0.0,100,0.00,,,0.00,WeatherCatV1.15B25,2013-06-05 09:46:00,
2013-06-05 05:51:00,44.9,44.9,30.16,North,0,0.0,0.0,100,0.00,,,0.00,WeatherCatV1.15B25,2013-06-05 09:51:00,
2013-06-05 05:56:00,45.1,45.1,30.16,North,0,0.0,0.0,100,0.00,,,0.00,WeatherCatV1.15B25,2013-06-05 09:56:00,
2013-06-05 06:01:00,45.2,45.2,30.16,North,0,0.0,0.0,100,0.00,,,0.00,WeatherCatV1.15B25,2013-06-05 10:01:00,
2013-06-05 06:06:00,45.5,45.5,30.16,North,0,0.0,0.0,100,0.00,,,0.00,WeatherCatV1.15B25,2013-06-05 10:06:00,
2013-06-05 06:11:00,46.0,46.0,30.16,North,0,0.0,0.0,100,0.00,,,0.00,WeatherCatV1.15B25,2013-06-05 10:11:00,
2013-06-05 06:16:00,46.2,46.2,30.16,North,0,0.0,0.0,100,0.00,,,0.00,WeatherCatV1.15B25,2013-06-05 10:16:00,
2013-06-05 06:21:00,46.5,46.5,30.17,North,0,0.0,0.0,100,0.00,,,0.00,WeatherCatV1.15B25,2013-06-05 10:21:00,
2013-06-05 06:26:00,47.0,47.0,30.17,North,0,0.0,0.0,100,0.00,,,0.00,WeatherCatV1.15B25,2013-06-05 10:26:00,
2013-06-05 06:31:00,47.3,47.3,30.17,North,0,0.0,1.0,100,0.00,,,0.00,WeatherCatV1.15B25,2013-06-05 10:31:00,
2013-06-05 06:36:00,47.8,47.8,30.17,North,0,0.0,0.0,100,0.00,,,0.00,WeatherCatV1.15B25,2013-06-05 10:36:00,
2013-06-05 06:41:00,48.4,48.4,30.17,North,0,0.0,0.0,100,0.00,,,0.00,WeatherCatV1.15B25,2013-06-05 10:41:00,
2013-06-05 06:46:00,48.9,48.9,30.17,North,0,0.0,0.0,100,0.00,,,0.00,WeatherCatV1.15B25,2013-06-05 10:46:00,
2013-06-05 06:51:00,49.5,49.5,30.17,North,0,0.0,0.0,100,0.00,,,0.00,WeatherCatV1.15B25,2013-06-05 10:51:00,
2013-06-05 06:56:00,50.2,50.2,30.17,North,1,0.0,0.0,100,0.00,,,0.00,WeatherCatV1.15B25,2013-06-05 10:56:00,
2013-06-05 07:01:00,51.4,51.4,30.18,North,7,0.0,0.0,100,0.00,,,0.00,WeatherCatV1.15B25,2013-06-05 11:01:00,
2013-06-05 07:06:00,52.7,52.7,30.18,NNE,12,0.0,0.0,100,0.00,,,0.00,WeatherCatV1.15B25,2013-06-05 11:06:00,
2013-06-05 07:11:00,53.5,53.5,30.18,North,1,0.0,2.0,100,0.00,,,0.00,WeatherCatV1.15B25,2013-06-05 11:11:00,
2013-06-05 07:16:00,54.7,54.7,30.18,North,1,0.0,2.0,100,0.00,,,0.00,WeatherCatV1.15B25,2013-06-05 11:16:00,
2013-06-05 07:21:00,55.8,54.7,30.18,North,1,0.0,1.0,96,0.00,,,0.00,WeatherCatV1.15B25,2013-06-05 11:21:00,
2013-06-05 07:26:00,56.8,54.8,30.18,North,4,1.0,2.0,93,0.00,,,0.00,WeatherCatV1.15B25,2013-06-05 11:26:00,
2013-06-05 07:31:00,57.5,54.6,30.18,North,0,1.0,3.0,90,0.00,,,0.00,WeatherCatV1.15B25,2013-06-05 11:31:00,
2013-06-05 07:36:00,58.8,54.9,30.18,North,0,1.0,3.0,87,0.00,,,0.00,WeatherCatV1.15B25,2013-06-05 11:36:00,
2013-06-05 07:41:00,59.6,54.8,30.18,North,0,0.0,2.0,84,0.00,,,0.00,WeatherCatV1.15B25,2013-06-05 11:41:00,
2013-06-05 07:46:00,60.4,55.5,30.18,North,0,1.0,2.0,84,0.00,,,0.00,WeatherCatV1.15B25,2013-06-05 11:46:00,
2013-06-05 07:51:00,61.4,55.9,30.18,North,0,0.0,2.0,82,0.00,,,0.00,WeatherCatV1.15B25,2013-06-05 11:51:00,
2013-06-05 07:56:00,62.7,55.7,30.19,North,0,0.0,2.0,78,0.00,,,0.00,WeatherCatV1.15B25,2013-06-05 11:56:00,
2013-06-05 08:01:00,63.0,55.7,30.18,North,0,1.0,3.0,77,0.00,,,0.00,WeatherCatV1.15B25,2013-06-05 12:01:00,
2013-06-05 08:06:00,62.5,52.6,30.19,North,0,2.0,3.0,70,0.00,,,0.00,WeatherCatV1.15B25,2013-06-05 12:06:00,
2013-06-05 08:11:00,62.0,52.5,30.19,NNE,30,1.0,5.0,71,0.00,,,0.00,WeatherCatV1.15B25,2013-06-05 12:11:00,
2013-06-05 08:16:00,62.0,52.5,30.19,NNE,30,3.0,4.0,71,0.00,,,0.00,WeatherCatV1.15B25,2013-06-05 12:16:00,
2013-06-05 08:21:00,61.6,51.3,30.19,NNE,24,1.0,3.0,69,0.00,,,0.00,WeatherCatV1.15B25,2013-06-05 12:21:00,
2013-06-05 08:26:00,62.0,52.1,30.19,North,8,1.0,3.0,70,0.00,,,0.00,WeatherCatV1.15B25,2013-06-05 12:26:00,
2013-06-05 08:31:00,62.2,51.9,30.18,NNW,337,2.0,4.0,69,0.00,,,0.00,WeatherCatV1.15B25,2013-06-05 12:31:00,
2013-06-05 08:36:00,62.7,52.0,30.19,North,0,4.0,5.0,68,0.00,,,0.00,WeatherCatV1.15B25,2013-06-05 12:36:00,
2013-06-05 08:41:00,62.3,50.8,30.19,North,11,5.0,7.0,66,0.00,,,0.00,WeatherCatV1.15B25,2013-06-05 12:41:00,
2013-06-05 08:46:00,62.3,50.4,30.19,ENE,71,1.0,7.0,65,0.00,,,0.00,WeatherCatV1.15B25,2013-06-05 12:46:00,
2013-06-05 08:51:00,62.5,50.2,30.19,NE,37,1.0,4.0,64,0.00,,,0.00,WeatherCatV1.15B25,2013-06-05 12:51:00,
2013-06-05 08:56:00,62.8,50.9,30.19,NE,43,0.0,2.0,65,0.00,,,0.00,WeatherCatV1.15B25,2013-06-05 12:56:00,
2013-06-05 09:01:00,63.7,51.7,30.20,NE,55,1.0,4.0,65,0.00,,,0.00,WeatherCatV1.15B25,2013-06-05 13:01:00,
2013-06-05 09:06:00,64.6,50.8,30.19,North,0,1.0,4.0,61,0.00,,,0.00,WeatherCatV1.15B25,2013-06-05 13:06:00,
2013-06-05 09:11:00,64.9,51.6,30.20,West,277,0.0,4.0,62,0.00,,,0.00,WeatherCatV1.15B25,2013-06-05 13:11:00,
2013-06-05 09:16:00,64.1,50.4,30.20,NNE,15,2.0,4.0,61,0.00,,,0.00,WeatherCatV1.15B25,2013-06-05 13:16:00,
2013-06-05 09:21:00,64.1,50.8,30.19,North,356,1.0,4.0,62,0.00,,,0.00,WeatherCatV1.15B25,2013-06-05 13:21:00,
2013-06-05 09:26:00,64.9,51.6,30.19,North,354,1.0,3.0,62,0.00,,,0.00,WeatherCatV1.15B25,2013-06-05 13:26:00,
2013-06-05 09:31:00,65.5,50.8,30.19,NNE,24,2.0,6.0,59,0.00,,,0.00,WeatherCatV1.15B25,2013-06-05 13:31:00,
2013-06-05 09:36:00,64.9,50.7,30.19,NE,40,4.0,6.0,60,0.00,,,0.00,WeatherCatV1.15B25,2013-06-05 13:36:00,
2013-06-05 09:41:00,64.4,50.7,30.20,NNE,13,2.0,5.0,61,0.00,,,0.00,WeatherCatV1.15B25,2013-06-05 13:41:00,
2013-06-05 09:46:00,64.9,52.0,30.20,NNE,13,2.0,2.0,63,0.00,,,0.00,WeatherCatV1.15B25,2013-06-05 13:46:00,
2013-06-05 09:51:00,65.7,51.4,30.19,WNW,296,4.0,4.0,60,0.00,,,0.00,WeatherCatV1.15B25,2013-06-05 13:51:00,
2013-06-05 09:56:00,65.6,50.4,30.18,NE,36,0.0,3.0,58,0.00,,,0.00,WeatherCatV1.15B25,2013-06-05 13:56:00,
2013-06-05 10:01:00,65.5,52.1,30.18,NNE,21,4.0,4.0,62,0.00,,,0.00,WeatherCatV1.15B25,2013-06-05 14:01:00,
2013-06-05 10:06:00,65.4,51.6,30.19,ENE,70,2.0,7.0,61,0.00,,,0.00,WeatherCatV1.15B25,2013-06-05 14:06:00,
2013-06-05 10:11:00,65.7,50.5,30.19,North,355,1.0,4.0,58,0.00,,,0.00,WeatherCatV1.15B25,2013-06-05 14:11:00,
2013-06-05 10:16:00,66.2,51.0,30.19,North,0,2.0,4.0,58,0.00,,,0.00,WeatherCatV1.15B25,2013-06-05 14:16:00,
2013-06-05 10:21:00,67.0,51.3,30.19,North,1,1.0,3.0,57,0.00,,,0.00,WeatherCatV1.15B25,2013-06-05 14:21:00,
2013-06-05 10:26:00,67.2,50.5,30.18,ENE,57,3.0,4.0,55,0.00,,,0.00,WeatherCatV1.15B25,2013-06-05 14:26:00,
2013-06-05 10:31:00,67.5,51.2,30.18,SW,231,3.0,4.0,56,0.00,,,0.00,WeatherCatV1.15B25,2013-06-05 14:31:00,
2013-06-05 10:36:00,67.8,51.5,30.18,West,261,5.0,5.0,56,0.00,,,0.00,WeatherCatV1.15B25,2013-06-05 14:36:00,
2013-06-05 10:41:00,67.0,50.3,30.18,NNW,347,2.0,7.0,55,0.00,,,0.00,WeatherCatV1.15B25,2013-06-05 14:41:00,
2013-06-05 10:46:00,66.7,50.0,30.17,NW,317,0.0,9.0,55,0.00,,,0.00,WeatherCatV1.15B25,2013-06-05 14:46:00,
2013-06-05 10:51:00,67.8,51.0,30.17,SW,231,2.0,4.0,55,0.00,,,0.00,WeatherCatV1.15B25,2013-06-05 14:51:00,
2013-06-05 10:56:00,68.3,52.0,30.17,SW,227,1.0,2.0,56,0.00,,,0.00,WeatherCatV1.15B25,2013-06-05 14:56:00,
2013-06-05 11:01:00,68.8,52.5,30.17,SW,229,1.0,4.0,56,0.00,,,0.00,WeatherCatV1.15B25,2013-06-05 15:01:00,
2013-06-05 11:06:00,68.3,51.5,30.18,North,6,3.0,6.0,55,0.00,,,0.00,WeatherCatV1.15B25,2013-06-05 15:06:00,
2013-06-05 11:11:00,68.0,51.7,30.17,ENE,67,3.0,5.0,56,0.00,,,0.00,WeatherCatV1.15B25,2013-06-05 15:11:00,
2013-06-05 11:16:00,67.7,51.9,30.17,NE,47,6.0,10.0,57,0.00,,,0.00,WeatherCatV1.15B25,2013-06-05 15:16:00,
2013-06-05 11:21:00,67.5,51.7,30.17,NE,43,2.0,4.0,57,0.00,,,0.00,WeatherCatV1.15B25,2013-06-05 15:21:00,
2013-06-05 11:26:00,68.0,51.2,30.17,NE,42,3.0,6.0,55,0.00,,,0.00,WeatherCatV1.15B25,2013-06-05 15:26:00,
2013-06-05 11:31:00,67.8,51.5,30.17,ENE,61,4.0,4.0,56,0.00,,,0.00,WeatherCatV1.15B25,2013-06-05 15:31:00,
2013-06-05 11:36:00,68.3,52.0,30.17,ENE,62,2.0,6.0,56,0.00,,,0.00,WeatherCatV1.15B25,2013-06-05 15:36:00,
2013-06-05 11:41:00,68.7,53.3,30.17,SSW,211,1.0,2.0,58,0.00,,,0.00,WeatherCatV1.15B25,2013-06-05 15:41:00,
2013-06-05 11:46:00,69.0,51.1,30.17,SSW,212,2.0,3.0,53,0.00,,,0.00,WeatherCatV1.15B25,2013-06-05 15:46:00,
2013-06-05 11:51:00,69.6,51.2,30.17,SSW,208,0.0,3.0,52,0.00,,,0.00,WeatherCatV1.15B25,2013-06-05 15:51:00,
2013-06-05 11:56:00,70.1,53.7,30.17,SSW,208,2.0,4.0,56,0.00,,,0.00,WeatherCatV1.15B25,2013-06-05 15:56:00,
2013-06-05 12:01:00,70.8,51.8,30.17,SSW,208,5.0,5.0,51,0.00,,,0.00,WeatherCatV1.15B25,2013-06-05 16:01:00,
2013-06-05 12:06:00,71.3,52.2,30.16,SSW,202,3.0,5.0,51,0.00,,,0.00,WeatherCatV1.15B25,2013-06-05 16:06:00,
2013-06-05 12:11:00,72.3,54.2,30.16,SW,236,2.0,3.0,53,0.00,,,0.00,WeatherCatV1.15B25,2013-06-05 16:11:00,
2013-06-05 12:16:00,71.8,50.5,30.16,WSW,243,1.0,3.0,47,0.00,,,0.00,WeatherCatV1.15B25,2013-06-05 16:16:00,
2013-06-05 12:21:00,70.8,50.1,30.16,North,10,1.0,5.0,48,0.00,,,0.00,WeatherCatV1.15B25,2013-06-05 16:21:00,
2013-06-05 12:26:00,69.8,50.8,30.16,NE,43,1.0,4.0,51,0.00,,,0.00,WeatherCatV1.15B25,2013-06-05 16:26:00,
2013-06-05 12:31:00,70.0,52.1,30.16,NE,43,1.0,2.0,53,0.00,,,0.00,WeatherCatV1.15B25,2013-06-05 16:31:00,
2013-06-05 12:36:00,70.8,52.8,30.16,NW,326,2.0,5.0,53,0.00,,,0.00,WeatherCatV1.15B25,2013-06-05 16:36:00,
2013-06-05 12:41:00,71.0,50.9,30.16,NNW,335,3.0,3.0,49,0.00,,,0.00,WeatherCatV1.15B25,2013-06-05 16:41:00,
2013-06-05 12:46:00,71.7,52.6,30.16,South,174,2.0,4.0,51,0.00,,,0.00,WeatherCatV1.15B25,2013-06-05 16:46:00,
2013-06-05 12:51:00,72.4,53.2,30.16,South,174,1.0,3.0,51,0.00,,,0.00,WeatherCatV1.15B25,2013-06-05 16:51:00,
2013-06-05 12:56:00,72.5,53.3,30.15,South,175,0.0,3.0,51,0.00,,,0.00,WeatherCatV1.15B25,2013-06-05 16:56:00,
2013-06-05 13:01:00,72.4,51.0,30.15,South,173,1.0,4.0,47,0.00,,,0.00,WeatherCatV1.15B25,2013-06-05 17:01:00,
2013-06-05 13:06:00,71.7,52.6,30.14,SE,145,2.0,2.0,51,0.00,,,0.00,WeatherCatV1.15B25,2013-06-05 17:06:00,
2013-06-05 13:10:00,72.5,53.9,30.15,SE,145,1.0,5.0,52,0.00,,,0.00,WeatherCatV1.15B25,2013-06-05 17:10:00,
2013-06-05 13:11:00,72.9,52.0,30.15,SE,145,3.0,3.0,48,0.00,,,0.00,WeatherCatV1.15B25,2013-06-05 17:11:00,
2013-06-05 13:15:00,73.7,52.8,30.15,SSW,193,4.0,5.0,48,0.00,,,0.00,WeatherCatV1.15B25,2013-06-05 17:15:00,
2013-06-05 13:16:00,73.9,53.0,30.15,SSW,192,3.0,4.0,48,0.00,,,0.00,WeatherCatV1.15B25,2013-06-05 17:16:00,
2013-06-05 13:20:00,74.0,53.6,30.15,South,178,4.0,4.0,49,0.00,,,0.00,WeatherCatV1.15B25,2013-06-05 17:20:00,
2013-06-05 13:25:00,74.6,52.4,30.14,South,181,1.0,4.0,46,0.00,,,0.00,WeatherCatV1.15B25,2013-06-05 17:25:00,
2013-06-05 13:26:00,74.6,52.4,30.15,South,181,3.0,4.0,46,0.00,,,0.00,WeatherCatV1.15B25,2013-06-05 17:26:00,
2013-06-05 13:31:00,75.1,52.3,30.14,South,182,2.0,5.0,45,0.00,,,0.00,WeatherCatV1.15B25,2013-06-05 17:31:00,
2013-06-05 13:36:00,74.7,51.3,30.14,South,182,1.0,5.0,44,0.00,,,0.00,WeatherCatV1.15B25,2013-06-05 17:36:00,
2013-06-05 13:41:00,74.4,52.3,30.13,SSW,196,2.0,3.0,46,0.00,,,0.00,WeatherCatV1.15B25,2013-06-05 17:41:00,
2013-06-05 13:46:00,74.9,52.1,30.14,SSW,196,0.0,2.0,45,0.00,,,0.00,WeatherCatV1.15B25,2013-06-05 17:46:00,
2013-06-05 13:51:00,74.3,51.6,30.13,South,189,3.0,4.0,45,0.00,,,0.00,WeatherCatV1.15B25,2013-06-05 17:51:00,
2013-06-05 13:56:00,73.2,50.6,30.13,ESE,115,4.0,4.0,45,0.00,,,0.00,WeatherCatV1.15B25,2013-06-05 17:56:00,
2013-06-05 14:01:00,73.5,51.4,30.13,ESE,123,1.0,6.0,46,0.00,,,0.00,WeatherCatV1.15B25,2013-06-05 18:01:00,
2013-06-05 14:06:00,73.7,52.2,30.13,ESE,103,1.0,3.0,47,0.00,,,0.00,WeatherCatV1.15B25,2013-06-05 18:06:00,
2013-06-05 14:11:00,74.7,52.5,30.14,SSE,157,2.0,4.0,46,0.00,,,0.00,WeatherCatV1.15B25,2013-06-05 18:11:00,
2013-06-05 14:16:00,75.4,52.0,30.14,South,172,4.0,5.0,44,0.00,,,0.00,WeatherCatV1.15B25,2013-06-05 18:16:00,
2013-06-05 14:21:00,75.4,50.0,30.13,South,172,3.0,4.0,41,0.00,,,0.00,WeatherCatV1.15B25,2013-06-05 18:21:00,
2013-06-05 14:26:00,74.5,51.1,30.13,WNW,301,0.0,3.0,44,0.00,,,0.00,WeatherCatV1.15B25,2013-06-05 18:26:00,
2013-06-05 14:31:00,74.6,51.2,30.12,SW,219,2.0,7.0,44,0.00,,,0.00,WeatherCatV1.15B25,2013-06-05 18:31:00,
2013-06-05 14:36:00,74.9,53.3,30.11,SW,222,1.0,3.0,47,0.00,,,0.00,WeatherCatV1.15B25,2013-06-05 18:36:00,
2013-06-05 14:41:00,74.4,51.7,30.12,SW,222,1.0,3.0,45,0.00,,,0.00,WeatherCatV1.15B25,2013-06-05 18:41:00,
2013-06-05 14:46:00,73.7,51.0,30.12,SW,226,3.0,4.0,45,0.00,,,0.00,WeatherCatV1.15B25,2013-06-05 18:46:00,
2013-06-05 14:51:00,73.4,50.8,30.12,SW,235,1.0,3.0,45,0.00,,,0.00,WeatherCatV1.15B25,2013-06-05 18:51:00,
2013-06-05 14:56:00,72.7,50.7,30.11,SW,235,4.0,4.0,46,0.00,,,0.00,WeatherCatV1.15B25,2013-06-05 18:56:00,
2013-06-05 15:01:00,72.7,51.9,30.11,SW,235,3.0,3.0,48,0.00,,,0.00,WeatherCatV1.15B25,2013-06-05 19:01:00,
2013-06-05 15:06:00,72.5,49.3,30.11,SW,236,2.0,3.0,44,0.00,,,0.00,WeatherCatV1.15B25,2013-06-05 19:06:00,
2013-06-05 15:11:00,72.3,50.3,30.11,SW,236,0.0,0.0,46,0.00,,,0.00,WeatherCatV1.15B25,2013-06-05 19:11:00,
2013-06-05 15:16:00,72.2,49.1,30.11,SW,236,2.0,2.0,44,0.00,,,0.00,WeatherCatV1.15B25,2013-06-05 19:16:00,
2013-06-05 15:21:00,72.5,49.3,30.11,SW,236,1.0,2.0,44,0.00,,,0.00,WeatherCatV1.15B25,2013-06-05 19:21:00,
2013-06-05 15:26:00,72.7,50.7,30.11,SW,236,1.0,1.0,46,0.00,,,0.00,WeatherCatV1.15B25,2013-06-05 19:26:00,
2013-06-05 15:31:00,73.1,50.5,30.11,SW,236,0.0,1.0,45,0.00,,,0.00,WeatherCatV1.15B25,2013-06-05 19:31:00,
2013-06-05 15:36:00,73.2,50.6,30.11,SW,236,3.0,3.0,45,0.00,,,0.00,WeatherCatV1.15B25,2013-06-05 19:36:00,
2013-06-05 15:41:00,73.7,49.8,30.10,SW,236,1.0,3.0,43,0.00,,,0.00,WeatherCatV1.15B25,2013-06-05 19:41:00,
2013-06-05 15:46:00,74.0,50.7,30.11,SW,222,3.0,6.0,44,0.00,,,0.00,WeatherCatV1.15B25,2013-06-05 19:46:00,
2013-06-05 15:51:00,74.4,52.8,30.10,SW,215,2.0,4.0,47,0.00,,,0.00,WeatherCatV1.15B25,2013-06-05 19:51:00,
2013-06-05 15:56:00,74.6,51.8,30.10,SW,215,0.0,0.0,45,0.00,,,0.00,WeatherCatV1.15B25,2013-06-05 19:56:00,
2013-06-05 16:01:00,74.6,51.2,30.10,SW,215,3.0,5.0,44,0.00,,,0.00,WeatherCatV1.15B25,2013-06-05 20:01:00,
2013-06-05 16:06:00,74.5,49.9,30.11,SW,216,0.0,2.0,42,0.00,,,0.00,WeatherCatV1.15B25,2013-06-05 20:06:00,
2013-06-05 16:11:00,74.4,49.1,30.10,SW,216,1.0,3.0,41,0.00,,,0.00,WeatherCatV1.15B25,2013-06-05 20:11:00,
2013-06-05 16:16:00,74.2,49.0,30.10,SW,216,1.0,3.0,41,0.00,,,0.00,WeatherCatV1.15B25,2013-06-05 20:16:00,
2013-06-05 16:21:00,74.2,51.5,30.10,SW,216,0.0,2.0,45,0.00,,,0.00,WeatherCatV1.15B25,2013-06-05 20:21:00,
2013-06-05 16:26:00,74.2,49.0,30.09,SW,216,1.0,3.0,41,0.00,,,0.00,WeatherCatV1.15B25,2013-06-05 20:26:00,
2013-06-05 16:31:00,74.2,48.3,30.09,SW,216,2.0,3.0,40,0.00,,,0.00,WeatherCatV1.15B25,2013-06-05 20:31:00,
2013-06-05 16:36:00,74.1,46.9,30.10,SW,216,2.0,4.0,38,0.00,,,0.00,WeatherCatV1.15B25,2013-06-05 20:36:00,
2013-06-05 16:41:00,73.4,47.6,30.09,SW,216,0.0,3.0,40,0.00,,,0.00,WeatherCatV1.15B25,2013-06-05 20:41:00,
2013-06-05 16:46:00,73.2,49.3,30.09,SW,216,4.0,5.0,43,0.00,,,0.00,WeatherCatV1.15B25,2013-06-05 20:46:00,
2013-06-05 16:51:00,73.4,50.1,30.09,SW,214,3.0,5.0,44,0.00,,,0.00,WeatherCatV1.15B25,2013-06-05 20:51:00,
2013-06-05 16:56:00,73.5,49.6,30.09,SW,214,0.0,3.0,43,0.00,,,0.00,WeatherCatV1.15B25,2013-06-05 20:56:00,
2013-06-05 17:01:00,73.7,51.0,30.09,SW,214,4.0,5.0,45,0.00,,,0.00,WeatherCatV1.15B25,2013-06-05 21:01:00,
2013-06-05 17:06:00,73.7,50.4,30.09,SW,214,1.0,2.0,44,0.00,,,0.00,WeatherCatV1.15B25,2013-06-05 21:06:00,
2013-06-05 17:11:00,73.7,51.0,30.09,SW,214,1.0,3.0,45,0.00,,,0.00,WeatherCatV1.15B25,2013-06-05 21:11:00,
2013-06-05 17:16:00,73.7,48.5,30.09,SW,214,1.0,2.0,41,0.00,,,0.00,WeatherCatV1.15B25,2013-06-05 21:16:00,
2013-06-05 17:21:00,73.9,50.6,30.09,SW,214,1.0,3.0,44,0.00,,,0.00,WeatherCatV1.15B25,2013-06-05 21:21:00,
2013-06-05 17:26:00,73.9,51.2,30.08,SW,214,0.0,1.0,45,0.00,,,0.00,WeatherCatV1.15B25,2013-06-05 21:26:00,
2013-06-05 17:31:00,73.9,51.8,30.09,SW,214,1.0,2.0,46,0.00,,,0.00,WeatherCatV1.15B25,2013-06-05 21:31:00,
2013-06-05 17:36:00,73.7,52.2,30.08,SW,214,1.0,2.0,47,0.00,,,0.00,WeatherCatV1.15B25,2013-06-05 21:36:00,
2013-06-05 17:41:00,73.7,52.8,30.09,SW,214,1.0,2.0,48,0.00,,,0.00,WeatherCatV1.15B25,2013-06-05 21:41:00,
2013-06-05 17:46:00,73.7,52.2,30.08,SW,214,1.0,2.0,47,0.00,,,0.00,WeatherCatV1.15B25,2013-06-05 21:46:00,
2013-06-05 17:51:00,73.9,53.0,30.08,SW,214,2.0,2.0,48,0.00,,,0.00,WeatherCatV1.15B25,2013-06-05 21:51:00,
2013-06-05 17:56:00,73.7,51.6,30.09,SW,214,1.0,4.0,46,0.00,,,0.00,WeatherCatV1.15B25,2013-06-05 21:56:00,
2013-06-05 18:01:00,73.7,51.0,30.09,SW,214,1.0,4.0,45,0.00,,,0.00,WeatherCatV1.15B25,2013-06-05 22:01:00,
2013-06-05 18:06:00,73.7,51.0,30.08,SW,214,1.0,3.0,45,0.00,,,0.00,WeatherCatV1.15B25,2013-06-05 22:06:00,
2013-06-05 18:11:00,73.6,51.5,30.09,SW,214,0.0,0.0,46,0.00,,,0.00,WeatherCatV1.15B25,2013-06-05 22:11:00,
2013-06-05 18:16:00,73.4,51.9,30.10,SW,214,3.0,5.0,47,0.00,,,0.00,WeatherCatV1.15B25,2013-06-05 22:16:00,
2013-06-05 18:21:00,73.1,51.7,30.09,SW,214,2.0,3.0,47,0.00,,,0.00,WeatherCatV1.15B25,2013-06-05 22:21:00,
2013-06-05 18:26:00,72.7,50.7,30.09,SW,214,3.0,3.0,46,0.00,,,0.00,WeatherCatV1.15B25,2013-06-05 22:26:00,
2013-06-05 18:31:00,72.5,51.1,30.09,SW,214,0.0,2.0,47,0.00,,,0.00,WeatherCatV1.15B25,2013-06-05 22:31:00,
2013-06-05 18:36:00,72.4,51.6,30.09,SW,214,2.0,4.0,48,0.00,,,0.00,WeatherCatV1.15B25,2013-06-05 22:36:00,
2013-06-05 18:41:00,72.4,52.7,30.09,SW,214,1.0,2.0,50,0.00,,,0.00,WeatherCatV1.15B25,2013-06-05 22:41:00,
2013-06-05 18:46:00,72.2,52.5,30.09,SW,214,2.0,2.0,50,0.00,,,0.00,WeatherCatV1.15B25,2013-06-05 22:46:00,
2013-06-05 18:51:00,72.0,51.8,30.09,SW,214,1.0,3.0,49,0.00,,,0.00,WeatherCatV1.15B25,2013-06-05 22:51:00,
2013-06-05 18:56:00,71.9,52.2,30.10,SW,214,1.0,2.0,50,0.00,,,0.00,WeatherCatV1.15B25,2013-06-05 22:56:00,
2013-06-05 19:01:00,71.8,53.2,30.10,SW,214,0.0,0.0,52,0.00,,,0.00,WeatherCatV1.15B25,2013-06-05 23:01:00,
2013-06-05 19:06:00,71.5,54.0,30.10,SW,214,0.0,0.0,54,0.00,,,0.00,WeatherCatV1.15B25,2013-06-05 23:06:00,
2013-06-05 19:11:00,71.4,54.9,30.11,SW,214,0.0,2.0,56,0.00,,,0.00,WeatherCatV1.15B25,2013-06-05 23:11:00,
2013-06-05 19:16:00,70.8,55.3,30.11,SW,214,0.0,0.0,58,0.00,,,0.00,WeatherCatV1.15B25,2013-06-05 23:16:00,
2013-06-05 19:21:00,70.5,55.9,30.10,SW,214,0.0,0.0,60,0.00,,,0.00,WeatherCatV1.15B25,2013-06-05 23:21:00,
2013-06-05 19:26:00,70.1,55.1,30.10,SW,214,0.0,0.0,59,0.00,,,0.00,WeatherCatV1.15B25,2013-06-05 23:26:00,
2013-06-05 19:31:00,69.8,55.3,30.11,SW,214,2.0,3.0,60,0.00,,,0.00,WeatherCatV1.15B25,2013-06-05 23:31:00,
2013-06-05 19:36:00,69.3,55.3,30.11,SW,214,1.0,2.0,61,0.00,,,0.00,WeatherCatV1.15B25,2013-06-05 23:36:00,
2013-06-05 19:41:00,68.8,54.8,30.10,SW,214,0.0,0.0,61,0.00,,,0.00,WeatherCatV1.15B25,2013-06-05 23:41:00,
2013-06-05 19:46:00,68.7,55.1,30.10,SW,214,1.0,3.0,62,0.00,,,0.00,WeatherCatV1.15B25,2013-06-05 23:46:00,
2013-06-05 19:51:00,68.4,54.9,30.10,SW,214,1.0,2.0,62,0.00,,,0.00,WeatherCatV1.15B25,2013-06-05 23:51:00,
2013-06-05 19:56:00,67.9,54.4,30.11,SW,214,1.0,2.0,62,0.00,,,0.00,WeatherCatV1.15B25,2013-06-05 23:56:00,
2013-06-05 20:01:00,67.5,54.5,30.11,SW,214,1.0,3.0,63,0.00,,,0.00,WeatherCatV1.15B25,2013-06-06 00:01:00,
2013-06-05 20:06:00,67.1,54.1,30.10,SW,214,0.0,1.0,63,0.00,,,0.00,WeatherCatV1.15B25,2013-06-06 00:06:00,
2013-06-05 20:11:00,66.7,54.6,30.11,SW,214,1.0,2.0,65,0.00,,,0.00,WeatherCatV1.15B25,2013-06-06 00:11:00,
2013-06-05 20:16:00,66.4,54.7,30.11,SW,214,0.0,2.0,66,0.00,,,0.00,WeatherCatV1.15B25,2013-06-06 00:16:00,
2013-06-05 20:21:00,65.9,54.2,30.10,SW,214,0.0,0.0,66,0.00,,,0.00,WeatherCatV1.15B25,2013-06-06 00:21:00,
2013-06-05 20:26:00,65.7,54.0,30.10,SW,214,1.0,2.0,66,0.00,,,0.00,WeatherCatV1.15B25,2013-06-06 00:26:00,
2013-06-05 20:31:00,65.4,54.6,30.10,SW,216,1.0,2.0,68,0.00,,,0.00,WeatherCatV1.15B25,2013-06-06 00:31:00,
2013-06-05 20:36:00,65.1,54.7,30.09,SW,214,0.0,2.0,69,0.00,,,0.00,WeatherCatV1.15B25,2013-06-06 00:36:00,
2013-06-05 20:41:00,64.8,54.8,30.10,SW,214,1.0,1.0,70,0.00,,,0.00,WeatherCatV1.15B25,2013-06-06 00:41:00,
2013-06-05 20:46:00,64.6,55.4,30.10,SW,214,0.0,2.0,72,0.00,,,0.00,WeatherCatV1.15B25,2013-06-06 00:46:00,
2013-06-05 20:51:00,64.6,55.4,30.11,SW,214,0.0,0.0,72,0.00,,,0.00,WeatherCatV1.15B25,2013-06-06 00:51:00,
2013-06-05 20:56:00,64.6,55.4,30.11,SW,214,0.0,0.0,72,0.00,,,0.00,WeatherCatV1.15B25,2013-06-06 00:56:00,
2013-06-05 21:01:00,64.6,55.4,30.11,SW,214,0.0,0.0,72,0.00,,,0.00,WeatherCatV1.15B25,2013-06-06 01:01:00,
2013-06-05 21:06:00,64.6,55.4,30.12,SW,214,0.0,0.0,72,0.00,,,0.00,WeatherCatV1.15B25,2013-06-06 01:06:00,
2013-06-05 21:11:00,64.6,55.4,30.13,SW,214,0.0,0.0,72,0.00,,,0.00,WeatherCatV1.15B25,2013-06-06 01:11:00,
2013-06-05 21:16:00,-999.0,32.0,30.11,North,0,0.0,0.0,50,0.00,,,0.00,WeatherCatV1.15B25,2013-06-06 01:16:00,
2013-06-05 21:21:00,-999.0,32.0,30.12,North,0,0.0,0.0,50,0.00,,,0.00,WeatherCatV1.15B25,2013-06-06 01:21:00,
2013-06-05 21:26:00,-999.0,32.0,30.12,North,0,0.0,0.0,50,0.00,,,0.00,WeatherCatV1.15B25,2013-06-06 01:26:00,
2013-06-05 21:31:00,-999.0,32.0,30.13,North,0,0.0,0.0,50,0.00,,,0.00,WeatherCatV1.15B25,2013-06-06 01:31:00,
2013-06-05 21:36:00,-999.0,32.0,30.12,North,0,0.0,0.0,50,0.00,,,0.00,WeatherCatV1.15B25,2013-06-06 01:36:00,
2013-06-05 21:41:00,61.5,42.7,30.13,SW,214,0.0,3.0,50,0.00,,,0.00,WeatherCatV1.15B25,2013-06-06 01:41:00,
2013-06-05 21:46:00,61.5,42.7,30.13,SW,214,0.0,0.0,50,0.00,,,0.00,WeatherCatV1.15B25,2013-06-06 01:46:00,
2013-06-05 21:51:00,61.6,42.8,30.13,SW,214,0.0,0.0,50,0.00,,,0.00,WeatherCatV1.15B25,2013-06-06 01:51:00,
2013-06-05 21:56:00,61.5,42.7,30.14,SW,214,0.0,0.0,50,0.00,,,0.00,WeatherCatV1.15B25,2013-06-06 01:56:00,
2013-06-05 22:01:00,61.6,42.8,30.15,SW,214,0.0,0.0,50,0.00,,,0.00,WeatherCatV1.15B25,2013-06-06 02:01:00,
2013-06-05 22:06:00,61.5,42.7,30.14,SW,214,0.0,0.0,50,0.00,,,0.00,WeatherCatV1.15B25,2013-06-06 02:06:00,
2013-06-05 22:11:00,61.6,42.8,30.14,SW,214,0.0,0.0,50,0.00,,,0.00,WeatherCatV1.15B25,2013-06-06 02:11:00,
2013-06-05 22:16:00,61.4,54.8,30.15,SW,214,0.0,1.0,79,0.00,,,0.00,WeatherCatV1.15B25,2013-06-06 02:16:00,
2013-06-05 22:21:00,61.4,54.8,30.14,SW,214,0.0,0.0,79,0.00,,,0.00,WeatherCatV1.15B25,2013-06-06 02:21:00,
2013-06-05 22:26:00,61.4,54.8,30.14,SW,214,0.0,0.0,79,0.00,,,0.00,WeatherCatV1.15B25,2013-06-06 02:26:00,
2013-06-05 22:31:00,61.2,55.0,30.14,SW,214,0.0,0.0,80,0.00,,,0.00,WeatherCatV1.15B25,2013-06-06 02:31:00,
2013-06-05 22:36:00,61.1,54.9,30.14,SW,214,0.0,0.0,80,0.00,,,0.00,WeatherCatV1.15B25,2013-06-06 02:36:00,
2013-06-05 22:37:00,61.1,54.9,30.15,SW,214,0.0,0.0,80,0.00,,,0.00,WeatherCatV1.15B25,2013-06-06 02:37:00,
2013-06-05 22:41:00,60.9,55.0,30.14,SW,214,0.0,0.0,81,0.00,,,0.00,WeatherCatV1.15B25,2013-06-06 02:41:00,
2013-06-05 22:42:00,60.9,55.0,30.14,SW,214,0.0,0.0,81,0.00,,,0.00,WeatherCatV1.15B25,2013-06-06 02:42:00,
2013-06-05 22:46:00,60.8,54.9,30.14,SW,214,0.0,0.0,81,0.00,,,0.00,WeatherCatV1.15B25,2013-06-06 02:46:00,
2013-06-05 22:51:00,60.4,54.5,30.14,SW,214,0.0,0.0,81,0.00,,,0.00,WeatherCatV1.15B25,2013-06-06 02:51:00,
2013-06-05 22:56:00,60.3,54.4,30.14,SW,214,0.0,0.0,81,0.00,,,0.00,WeatherCatV1.15B25,2013-06-06 02:56:00,
2013-06-05 22:57:00,60.3,54.4,30.14,SW,214,0.0,0.0,81,0.00,,,0.00,WeatherCatV1.15B25,2013-06-06 02:57:00,
2013-06-05 23:02:00,60.0,54.5,30.15,SW,214,0.0,0.0,82,0.00,,,0.00,WeatherCatV1.15B25,2013-06-06 03:02:00,
2013-06-05 23:07:00,59.7,54.2,30.14,SW,214,0.0,0.0,82,0.00,,,0.00,WeatherCatV1.15B25,2013-06-06 03:07:00,
2013-06-05 23:12:00,59.5,54.0,30.15,SW,214,0.0,0.0,82,0.00,,,0.00,WeatherCatV1.15B25,2013-06-06 03:12:00,
2013-06-05 23:17:00,59.1,53.9,30.14,SW,214,0.0,0.0,83,0.00,,,0.00,WeatherCatV1.15B25,2013-06-06 03:17:00,
2013-06-05 23:22:00,58.7,53.9,30.15,SW,214,0.0,0.0,84,0.00,,,0.00,WeatherCatV1.15B25,2013-06-06 03:22:00,
2013-06-05 23:27:00,58.7,53.9,30.15,SW,214,0.0,0.0,84,0.00,,,0.00,WeatherCatV1.15B25,2013-06-06 03:27:00,
2013-06-05 23:32:00,58.8,54.0,30.15,SW,214,0.0,0.0,84,0.00,,,0.00,WeatherCatV1.15B25,2013-06-06 03:32:00,
2013-06-05 23:37:00,57.7,54.2,30.16,SW,214,0.0,0.0,88,0.00,,,0.00,WeatherCatV1.15B25,2013-06-06 03:37:00,
2013-06-05 23:42:00,57.4,54.5,30.15,SW,214,0.0,0.0,90,0.00,,,0.00,WeatherCatV1.15B25,2013-06-06 03:42:00,
2013-06-05 23:47:00,57.2,54.3,30.15,SW,214,0.0,0.0,90,0.00,,,0.00,WeatherCatV1.15B25,2013-06-06 03:47:00,
2013-06-05 23:52:00,57.0,54.1,30.15,SW,214,0.0,0.0,90,0.00,,,0.00,WeatherCatV1.15B25,2013-06-06 03:52:00,
2013-06-05 23:57:00,56.6,53.7,30.14,SW,214,0.0,0.0,90,0.00,,,0.00,WeatherCatV1.15B25,2013-06-06 03:57:00,